sensor_id;sensor_type;location;lat;lon;timestamp;temperature;humidity
10270;DHT22;70826;50.930;5.334;2023-08-06T00:00:19;26.70;83.00
10270;DHT22;70826;50.930;5.334;2023-08-06T00:02:49;26.70;83.00
10270;DHT22;70826;50.930;5.334;2023-08-06T00:05:15;26.70;83.00
10270;DHT22;70826;50.930;5.334;2023-08-06T00:07:50;26.70;83.00
10270;DHT22;70826;50.930;5.334;2023-08-06T00:10:16;26.70;83.00
10270;DHT22;70826;50.930;5.334;2023-08-06T00:12:43;26.70;83.00
10270;DHT22;70826;50.930;5.334;2023-08-06T00:15:12;26.70;83.00
10270;DHT22;70826;50.930;5.334;2023-08-06T00:17:40;26.70;83.00
10270;DHT22;70826;50.930;5.334;2023-08-06T00:20:08;26.70;83.00
10270;DHT22;70826;50.930;5.334;2023-08-06T00:22:42;26.70;83.00
10270;DHT22;70826;50.930;5.334;2023-08-06T00:25:10;26.70;83.10
10270;DHT22;70826;50.930;5.334;2023-08-06T00:27:41;26.70;83.00
10270;DHT22;70826;50.930;5.334;2023-08-06T00:30:11;26.70;83.00
10270;DHT22;70826;50.930;5.334;2023-08-06T00:32:37;26.70;83.00
10270;DHT22;70826;50.930;5.334;2023-08-06T00:35:05;26.70;83.00
10270;DHT22;70826;50.930;5.334;2023-08-06T00:37:33;26.70;83.00
10270;DHT22;70826;50.930;5.334;2023-08-06T00:39:59;26.70;83.00
10270;DHT22;70826;50.930;5.334;2023-08-06T00:42:29;26.70;83.00
10270;DHT22;70826;50.930;5.334;2023-08-06T00:44:59;26.70;83.00
10270;DHT22;70826;50.930;5.334;2023-08-06T00:47:28;26.70;83.10
10270;DHT22;70826;50.930;5.334;2023-08-06T00:49:54;26.70;83.00
10270;DHT22;70826;50.930;5.334;2023-08-06T00:52:30;26.70;83.00
10270;DHT22;70826;50.930;5.334;2023-08-06T00:54:56;26.70;83.10
10270;DHT22;70826;50.930;5.334;2023-08-06T00:57:25;26.70;83.00
10270;DHT22;70826;50.930;5.334;2023-08-06T00:59:51;26.70;83.10
10270;DHT22;70826;50.930;5.334;2023-08-06T01:02:17;26.70;83.10
10270;DHT22;70826;50.930;5.334;2023-08-06T01:04:48;26.70;83.70
10270;DHT22;70826;50.930;5.334;2023-08-06T01:10:05;26.70;83.10
10270;DHT22;70826;50.930;5.334;2023-08-06T01:12:45;26.70;83.10
10270;DHT22;70826;50.930;5.334;2023-08-06T01:15:21;26.70;83.20
10270;DHT22;70826;50.930;5.334;2023-08-06T01:17:48;26.70;83.10
10270;DHT22;70826;50.930;5.334;2023-08-06T01:20:14;26.70;83.10
10270;DHT22;70826;50.930;5.334;2023-08-06T01:22:41;26.70;83.10
10270;DHT22;70826;50.930;5.334;2023-08-06T01:25:10;26.70;83.20
10270;DHT22;70826;50.930;5.334;2023-08-06T01:30:17;26.70;83.20
10270;DHT22;70826;50.930;5.334;2023-08-06T01:32:45;26.70;83.20
10270;DHT22;70826;50.930;5.334;2023-08-06T01:35:17;26.70;83.20
10270;DHT22;70826;50.930;5.334;2023-08-06T01:37:49;26.70;83.30
10270;DHT22;70826;50.930;5.334;2023-08-06T01:40:15;26.70;83.20
10270;DHT22;70826;50.930;5.334;2023-08-06T01:42:43;26.70;83.20
10270;DHT22;70826;50.930;5.334;2023-08-06T01:45:13;26.70;83.20
10270;DHT22;70826;50.930;5.334;2023-08-06T01:47:41;26.70;83.30
10270;DHT22;70826;50.930;5.334;2023-08-06T01:50:09;26.70;83.30
10270;DHT22;70826;50.930;5.334;2023-08-06T01:52:35;26.70;83.20
10270;DHT22;70826;50.930;5.334;2023-08-06T01:55:05;26.70;83.30
10270;DHT22;70826;50.930;5.334;2023-08-06T01:57:34;26.70;83.20
10270;DHT22;70826;50.930;5.334;2023-08-06T02:00:02;26.70;83.30
10270;DHT22;70826;50.930;5.334;2023-08-06T02:02:29;26.70;83.30
10270;DHT22;70826;50.930;5.334;2023-08-06T02:04:57;26.70;83.30
10270;DHT22;70826;50.930;5.334;2023-08-06T02:07:32;26.70;83.30
10270;DHT22;70826;50.930;5.334;2023-08-06T02:10:00;26.70;83.30
10270;DHT22;70826;50.930;5.334;2023-08-06T02:12:30;26.70;83.30
10270;DHT22;70826;50.930;5.334;2023-08-06T02:14:55;26.70;83.30
10270;DHT22;70826;50.930;5.334;2023-08-06T02:17:24;26.70;83.30
10270;DHT22;70826;50.930;5.334;2023-08-06T02:19:49;26.70;83.40
10270;DHT22;70826;50.930;5.334;2023-08-06T02:22:17;26.70;83.30
10270;DHT22;70826;50.930;5.334;2023-08-06T02:24:47;26.70;83.40
10270;DHT22;70826;50.930;5.334;2023-08-06T02:27:16;26.70;83.40
10270;DHT22;70826;50.930;5.334;2023-08-06T02:29:42;26.70;83.40
10270;DHT22;70826;50.930;5.334;2023-08-06T02:32:12;26.70;83.40
10270;DHT22;70826;50.930;5.334;2023-08-06T02:34:43;26.70;83.40
10270;DHT22;70826;50.930;5.334;2023-08-06T02:37:08;26.70;84.00
10270;DHT22;70826;50.930;5.334;2023-08-06T02:39:34;26.70;83.40
10270;DHT22;70826;50.930;5.334;2023-08-06T02:42:08;26.70;83.40
10270;DHT22;70826;50.930;5.334;2023-08-06T02:44:36;26.70;83.40
10270;DHT22;70826;50.930;5.334;2023-08-06T02:47:04;26.70;83.40
10270;DHT22;70826;50.930;5.334;2023-08-06T02:49:30;26.70;83.40
10270;DHT22;70826;50.930;5.334;2023-08-06T02:51:57;26.60;83.30
10270;DHT22;70826;50.930;5.334;2023-08-06T02:54:25;26.70;83.40
10270;DHT22;70826;50.930;5.334;2023-08-06T02:56:58;26.70;83.40
10270;DHT22;70826;50.930;5.334;2023-08-06T02:59:26;26.70;83.40
10270;DHT22;70826;50.930;5.334;2023-08-06T03:01:54;26.70;83.40
10270;DHT22;70826;50.930;5.334;2023-08-06T03:04:24;26.60;83.40
10270;DHT22;70826;50.930;5.334;2023-08-06T03:06:50;26.60;83.40
10270;DHT22;70826;50.930;5.334;2023-08-06T03:09:18;26.60;83.40
10270;DHT22;70826;50.930;5.334;2023-08-06T03:11:46;26.60;83.40
10270;DHT22;70826;50.930;5.334;2023-08-06T03:14:14;26.60;83.40
10270;DHT22;70826;50.930;5.334;2023-08-06T03:16:46;26.60;83.40
10270;DHT22;70826;50.930;5.334;2023-08-06T03:19:16;26.60;83.40
10270;DHT22;70826;50.930;5.334;2023-08-06T03:21:42;26.60;83.40
10270;DHT22;70826;50.930;5.334;2023-08-06T03:24:07;26.60;83.40
10270;DHT22;70826;50.930;5.334;2023-08-06T03:26:35;26.70;83.50
10270;DHT22;70826;50.930;5.334;2023-08-06T03:29:06;26.60;83.40
10270;DHT22;70826;50.930;5.334;2023-08-06T03:31:34;26.70;83.50
10270;DHT22;70826;50.930;5.334;2023-08-06T03:34:01;26.60;83.50
10270;DHT22;70826;50.930;5.334;2023-08-06T03:36:27;26.60;83.50
10270;DHT22;70826;50.930;5.334;2023-08-06T03:38:53;26.60;83.50
10270;DHT22;70826;50.930;5.334;2023-08-06T03:41:21;26.60;83.50
10270;DHT22;70826;50.930;5.334;2023-08-06T03:43:49;26.60;83.50
10270;DHT22;70826;50.930;5.334;2023-08-06T03:46:17;26.60;83.50
10270;DHT22;70826;50.930;5.334;2023-08-06T03:48:44;26.60;83.50
10270;DHT22;70826;50.930;5.334;2023-08-06T03:51:15;26.60;83.50
10270;DHT22;70826;50.930;5.334;2023-08-06T03:53:43;26.60;83.50
10270;DHT22;70826;50.930;5.334;2023-08-06T03:56:12;26.60;83.50
10270;DHT22;70826;50.930;5.334;2023-08-06T03:58:37;26.60;83.50
10270;DHT22;70826;50.930;5.334;2023-08-06T04:01:03;26.60;83.50
10270;DHT22;70826;50.930;5.334;2023-08-06T04:03:32;26.60;83.50
10270;DHT22;70826;50.930;5.334;2023-08-06T04:05:57;26.60;83.60
10270;DHT22;70826;50.930;5.334;2023-08-06T04:08:25;26.60;83.60
10270;DHT22;70826;50.930;5.334;2023-08-06T04:10:53;26.60;83.60
10270;DHT22;70826;50.930;5.334;2023-08-06T04:13:23;26.60;83.60
10270;DHT22;70826;50.930;5.334;2023-08-06T04:15:54;26.60;83.70
10270;DHT22;70826;50.930;5.334;2023-08-06T04:18:19;26.60;83.60
10270;DHT22;70826;50.930;5.334;2023-08-06T04:20:48;26.60;83.60
10270;DHT22;70826;50.930;5.334;2023-08-06T04:23:22;26.60;83.70
10270;DHT22;70826;50.930;5.334;2023-08-06T04:25:55;26.60;83.60
10270;DHT22;70826;50.930;5.334;2023-08-06T04:28:28;26.60;83.70
10270;DHT22;70826;50.930;5.334;2023-08-06T04:30:54;26.60;83.70
10270;DHT22;70826;50.930;5.334;2023-08-06T04:33:26;26.60;83.70
10270;DHT22;70826;50.930;5.334;2023-08-06T04:35:57;26.60;83.70
10270;DHT22;70826;50.930;5.334;2023-08-06T04:38:28;26.60;83.70
10270;DHT22;70826;50.930;5.334;2023-08-06T04:40:59;26.60;83.80
10270;DHT22;70826;50.930;5.334;2023-08-06T04:43:30;26.60;83.80
10270;DHT22;70826;50.930;5.334;2023-08-06T04:45:55;26.60;83.70
10270;DHT22;70826;50.930;5.334;2023-08-06T04:48:23;26.60;83.70
10270;DHT22;70826;50.930;5.334;2023-08-06T04:50:49;26.70;83.80
10270;DHT22;70826;50.930;5.334;2023-08-06T04:53:17;26.60;83.70
10270;DHT22;70826;50.930;5.334;2023-08-06T04:55:43;26.60;83.80
10270;DHT22;70826;50.930;5.334;2023-08-06T04:58:10;26.70;83.80
10270;DHT22;70826;50.930;5.334;2023-08-06T05:00:36;26.60;83.80
10270;DHT22;70826;50.930;5.334;2023-08-06T05:03:01;26.60;83.80
10270;DHT22;70826;50.930;5.334;2023-08-06T05:05:28;26.60;83.80
10270;DHT22;70826;50.930;5.334;2023-08-06T05:07:59;26.60;83.80
10270;DHT22;70826;50.930;5.334;2023-08-06T05:10:27;26.60;83.80
10270;DHT22;70826;50.930;5.334;2023-08-06T05:12:54;26.60;83.80
10270;DHT22;70826;50.930;5.334;2023-08-06T05:15:24;26.60;83.80
10270;DHT22;70826;50.930;5.334;2023-08-06T05:17:55;26.60;83.80
10270;DHT22;70826;50.930;5.334;2023-08-06T05:20:23;26.60;83.80
10270;DHT22;70826;50.930;5.334;2023-08-06T05:22:49;26.60;83.80
10270;DHT22;70826;50.930;5.334;2023-08-06T05:25:14;26.60;83.90
10270;DHT22;70826;50.930;5.334;2023-08-06T05:27:45;26.60;83.90
10270;DHT22;70826;50.930;5.334;2023-08-06T05:30:15;26.60;83.90
10270;DHT22;70826;50.930;5.334;2023-08-06T05:32:43;26.60;83.90
10270;DHT22;70826;50.930;5.334;2023-08-06T05:35:08;26.60;83.90
10270;DHT22;70826;50.930;5.334;2023-08-06T05:37:34;26.60;83.90
10270;DHT22;70826;50.930;5.334;2023-08-06T05:40:05;26.70;84.00
10270;DHT22;70826;50.930;5.334;2023-08-06T05:42:33;26.60;83.90
10270;DHT22;70826;50.930;5.334;2023-08-06T05:45:06;26.60;83.90
10270;DHT22;70826;50.930;5.334;2023-08-06T05:47:34;26.60;84.00
10270;DHT22;70826;50.930;5.334;2023-08-06T05:50:02;26.60;84.00
10270;DHT22;70826;50.930;5.334;2023-08-06T05:52:33;26.60;84.00
10270;DHT22;70826;50.930;5.334;2023-08-06T05:55:01;26.60;84.00
10270;DHT22;70826;50.930;5.334;2023-08-06T05:57:26;26.60;84.00
10270;DHT22;70826;50.930;5.334;2023-08-06T05:59:52;26.60;84.60
10270;DHT22;70826;50.930;5.334;2023-08-06T06:02:20;26.60;84.00
10270;DHT22;70826;50.930;5.334;2023-08-06T06:04:45;26.70;84.10
10270;DHT22;70826;50.930;5.334;2023-08-06T06:07:16;26.60;84.00
10270;DHT22;70826;50.930;5.334;2023-08-06T06:09:48;26.60;84.00
10270;DHT22;70826;50.930;5.334;2023-08-06T06:12:16;26.60;84.00
10270;DHT22;70826;50.930;5.334;2023-08-06T06:14:47;26.60;84.00
10270;DHT22;70826;50.930;5.334;2023-08-06T06:17:12;26.70;84.00
10270;DHT22;70826;50.930;5.334;2023-08-06T06:19:43;26.60;84.00
10270;DHT22;70826;50.930;5.334;2023-08-06T06:22:11;26.60;84.00
10270;DHT22;70826;50.930;5.334;2023-08-06T06:24:39;26.60;84.00
10270;DHT22;70826;50.930;5.334;2023-08-06T06:27:06;26.60;84.00
10270;DHT22;70826;50.930;5.334;2023-08-06T06:29:37;26.60;84.00
10270;DHT22;70826;50.930;5.334;2023-08-06T06:32:02;26.60;84.00
10270;DHT22;70826;50.930;5.334;2023-08-06T06:34:31;26.60;84.00
10270;DHT22;70826;50.930;5.334;2023-08-06T06:37:01;26.60;84.00
10270;DHT22;70826;50.930;5.334;2023-08-06T06:39:29;26.60;83.90
10270;DHT22;70826;50.930;5.334;2023-08-06T06:41:57;26.60;83.90
10270;DHT22;70826;50.930;5.334;2023-08-06T06:44:23;26.60;83.90
10270;DHT22;70826;50.930;5.334;2023-08-06T06:46:51;26.60;83.90
10270;DHT22;70826;50.930;5.334;2023-08-06T06:49:19;26.60;83.90
10270;DHT22;70826;50.930;5.334;2023-08-06T06:51:50;26.60;83.90
10270;DHT22;70826;50.930;5.334;2023-08-06T06:54:16;26.60;83.90
10270;DHT22;70826;50.930;5.334;2023-08-06T06:56:42;26.60;83.80
10270;DHT22;70826;50.930;5.334;2023-08-06T06:59:10;26.60;83.80
10270;DHT22;70826;50.930;5.334;2023-08-06T07:01:40;26.60;83.80
10270;DHT22;70826;50.930;5.334;2023-08-06T07:04:10;26.60;83.80
10270;DHT22;70826;50.930;5.334;2023-08-06T07:06:41;26.60;83.80
10270;DHT22;70826;50.930;5.334;2023-08-06T07:09:09;26.60;83.80
10270;DHT22;70826;50.930;5.334;2023-08-06T07:11:35;26.60;83.80
10270;DHT22;70826;50.930;5.334;2023-08-06T07:14:01;26.60;83.80
10270;DHT22;70826;50.930;5.334;2023-08-06T07:16:31;26.60;83.90
10270;DHT22;70826;50.930;5.334;2023-08-06T07:18:57;26.60;83.90
10270;DHT22;70826;50.930;5.334;2023-08-06T07:21:22;26.60;83.90
10270;DHT22;70826;50.930;5.334;2023-08-06T07:23:52;26.60;83.90
10270;DHT22;70826;50.930;5.334;2023-08-06T07:26:21;26.60;83.90
10270;DHT22;70826;50.930;5.334;2023-08-06T07:28:48;26.60;83.90
10270;DHT22;70826;50.930;5.334;2023-08-06T07:31:19;26.60;83.80
10270;DHT22;70826;50.930;5.334;2023-08-06T07:33:47;26.60;83.80
10270;DHT22;70826;50.930;5.334;2023-08-06T07:36:14;26.60;83.80
10270;DHT22;70826;50.930;5.334;2023-08-06T07:38:44;26.60;83.70
10270;DHT22;70826;50.930;5.334;2023-08-06T07:41:12;26.60;83.70
10270;DHT22;70826;50.930;5.334;2023-08-06T07:43:40;26.60;83.70
10270;DHT22;70826;50.930;5.334;2023-08-06T07:46:11;26.60;83.70
10270;DHT22;70826;50.930;5.334;2023-08-06T07:48:38;26.60;83.60
10270;DHT22;70826;50.930;5.334;2023-08-06T07:51:04;26.60;83.50
10270;DHT22;70826;50.930;5.334;2023-08-06T07:53:34;26.60;83.50
10270;DHT22;70826;50.930;5.334;2023-08-06T07:56:05;26.60;83.50
10270;DHT22;70826;50.930;5.334;2023-08-06T07:58:33;26.60;83.50
10270;DHT22;70826;50.930;5.334;2023-08-06T08:00:58;26.60;83.50
10270;DHT22;70826;50.930;5.334;2023-08-06T08:03:27;26.60;83.50
10270;DHT22;70826;50.930;5.334;2023-08-06T08:05:55;26.60;83.50
10270;DHT22;70826;50.930;5.334;2023-08-06T08:08:26;26.60;83.50
10270;DHT22;70826;50.930;5.334;2023-08-06T08:10:58;26.60;83.50
10270;DHT22;70826;50.930;5.334;2023-08-06T08:13:26;26.60;83.40
10270;DHT22;70826;50.930;5.334;2023-08-06T08:15:59;26.60;83.50
10270;DHT22;70826;50.930;5.334;2023-08-06T08:18:25;26.60;83.70
10270;DHT22;70826;50.930;5.334;2023-08-06T08:20:50;26.50;84.00
10270;DHT22;70826;50.930;5.334;2023-08-06T08:23:18;26.50;84.20
10270;DHT22;70826;50.930;5.334;2023-08-06T08:25:44;26.50;84.50
10270;DHT22;70826;50.930;5.334;2023-08-06T08:28:12;26.40;84.60
10270;DHT22;70826;50.930;5.334;2023-08-06T08:30:41;26.50;84.80
10270;DHT22;70826;50.930;5.334;2023-08-06T08:33:07;26.50;85.00
10270;DHT22;70826;50.930;5.334;2023-08-06T08:35:33;26.50;85.10
10270;DHT22;70826;50.930;5.334;2023-08-06T08:38:01;26.50;85.20
10270;DHT22;70826;50.930;5.334;2023-08-06T08:40:32;26.60;85.20
10270;DHT22;70826;50.930;5.334;2023-08-06T08:43:04;26.70;85.10
10270;DHT22;70826;50.930;5.334;2023-08-06T08:45:33;26.80;85.00
10270;DHT22;70826;50.930;5.334;2023-08-06T08:48:02;26.80;84.90
10270;DHT22;70826;50.930;5.334;2023-08-06T08:50:33;26.90;84.90
10270;DHT22;70826;50.930;5.334;2023-08-06T08:52:59;27.00;84.90
10270;DHT22;70826;50.930;5.334;2023-08-06T08:55:28;27.10;84.80
10270;DHT22;70826;50.930;5.334;2023-08-06T08:57:56;27.10;84.90
10270;DHT22;70826;50.930;5.334;2023-08-06T09:00:22;27.10;84.90
10270;DHT22;70826;50.930;5.334;2023-08-06T09:02:47;27.10;84.90
10270;DHT22;70826;50.930;5.334;2023-08-06T09:05:16;27.20;84.80
10270;DHT22;70826;50.930;5.334;2023-08-06T09:07:47;27.20;84.70
10270;DHT22;70826;50.930;5.334;2023-08-06T09:10:16;27.30;84.70
10270;DHT22;70826;50.930;5.334;2023-08-06T09:12:47;27.30;84.60
10270;DHT22;70826;50.930;5.334;2023-08-06T09:15:13;27.30;84.70
10270;DHT22;70826;50.930;5.334;2023-08-06T09:17:41;27.40;84.70
10270;DHT22;70826;50.930;5.334;2023-08-06T09:20:13;27.30;84.70
10270;DHT22;70826;50.930;5.334;2023-08-06T09:22:41;27.40;84.70
10270;DHT22;70826;50.930;5.334;2023-08-06T09:25:10;27.40;84.60
10270;DHT22;70826;50.930;5.334;2023-08-06T09:27:38;27.40;84.50
10270;DHT22;70826;50.930;5.334;2023-08-06T09:30:05;27.50;84.50
10270;DHT22;70826;50.930;5.334;2023-08-06T09:32:46;27.50;84.40
10270;DHT22;70826;50.930;5.334;2023-08-06T09:35:19;27.50;84.40
10270;DHT22;70826;50.930;5.334;2023-08-06T09:37:46;27.50;84.40
10270;DHT22;70826;50.930;5.334;2023-08-06T09:40:33;27.50;84.40
10270;DHT22;70826;50.930;5.334;2023-08-06T09:43:01;27.60;84.50
10270;DHT22;70826;50.930;5.334;2023-08-06T09:45:31;27.60;84.40
10270;DHT22;70826;50.930;5.334;2023-08-06T09:47:59;27.60;84.30
10270;DHT22;70826;50.930;5.334;2023-08-06T09:50:30;27.70;84.30
10270;DHT22;70826;50.930;5.334;2023-08-06T09:53:01;27.70;84.30
10270;DHT22;70826;50.930;5.334;2023-08-06T09:55:29;27.70;84.20
10270;DHT22;70826;50.930;5.334;2023-08-06T09:57:55;27.70;84.10
10270;DHT22;70826;50.930;5.334;2023-08-06T10:00:24;27.80;84.10
10270;DHT22;70826;50.930;5.334;2023-08-06T10:02:55;27.80;84.00
10270;DHT22;70826;50.930;5.334;2023-08-06T10:05:25;27.80;83.90
10270;DHT22;70826;50.930;5.334;2023-08-06T10:07:52;27.90;83.80
10270;DHT22;70826;50.930;5.334;2023-08-06T10:10:18;27.90;83.60
10270;DHT22;70826;50.930;5.334;2023-08-06T10:12:49;28.00;83.40
10270;DHT22;70826;50.930;5.334;2023-08-06T10:15:20;27.90;83.20
10270;DHT22;70826;50.930;5.334;2023-08-06T10:17:51;27.90;83.00
10270;DHT22;70826;50.930;5.334;2023-08-06T10:20:18;28.00;83.00
10270;DHT22;70826;50.930;5.334;2023-08-06T10:22:46;27.90;82.90
10270;DHT22;70826;50.930;5.334;2023-08-06T10:25:24;27.90;82.80
10270;DHT22;70826;50.930;5.334;2023-08-06T10:30:29;27.90;82.70
10270;DHT22;70826;50.930;5.334;2023-08-06T10:35:43;27.90;82.70
10270;DHT22;70826;50.930;5.334;2023-08-06T10:38:17;27.80;82.60
10270;DHT22;70826;50.930;5.334;2023-08-06T10:43:45;27.80;82.70
10270;DHT22;70826;50.930;5.334;2023-08-06T10:46:23;27.70;82.60
10270;DHT22;70826;50.930;5.334;2023-08-06T10:48:51;27.70;82.60
10270;DHT22;70826;50.930;5.334;2023-08-06T10:51:17;27.70;82.60
10270;DHT22;70826;50.930;5.334;2023-08-06T10:53:45;27.70;82.60
10270;DHT22;70826;50.930;5.334;2023-08-06T10:56:19;27.60;82.50
10270;DHT22;70826;50.930;5.334;2023-08-06T10:58:51;27.60;82.50
10270;DHT22;70826;50.930;5.334;2023-08-06T11:01:17;27.60;82.50
10270;DHT22;70826;50.930;5.334;2023-08-06T11:03:46;27.60;82.50
10270;DHT22;70826;50.930;5.334;2023-08-06T11:06:18;27.50;82.50
10270;DHT22;70826;50.930;5.334;2023-08-06T11:08:52;27.50;82.50
10270;DHT22;70826;50.930;5.334;2023-08-06T11:11:23;27.50;82.50
10270;DHT22;70826;50.930;5.334;2023-08-06T11:13:50;27.50;82.50
10270;DHT22;70826;50.930;5.334;2023-08-06T11:16:23;27.40;82.40
10270;DHT22;70826;50.930;5.334;2023-08-06T11:18:51;27.40;82.40
10270;DHT22;70826;50.930;5.334;2023-08-06T11:21:21;27.40;82.40
10270;DHT22;70826;50.930;5.334;2023-08-06T11:23:51;27.40;82.40
10270;DHT22;70826;50.930;5.334;2023-08-06T11:26:22;27.40;82.40
10270;DHT22;70826;50.930;5.334;2023-08-06T11:28:56;27.40;82.40
10270;DHT22;70826;50.930;5.334;2023-08-06T11:31:24;27.30;82.30
10270;DHT22;70826;50.930;5.334;2023-08-06T11:33:55;27.30;82.30
10270;DHT22;70826;50.930;5.334;2023-08-06T11:36:42;27.30;82.30
10270;DHT22;70826;50.930;5.334;2023-08-06T11:39:11;27.30;82.30
10270;DHT22;70826;50.930;5.334;2023-08-06T11:41:38;27.30;82.30
10270;DHT22;70826;50.930;5.334;2023-08-06T11:44:05;27.30;82.30
10270;DHT22;70826;50.930;5.334;2023-08-06T11:46:50;27.20;82.20
10270;DHT22;70826;50.930;5.334;2023-08-06T11:49:19;27.20;82.20
10270;DHT22;70826;50.930;5.334;2023-08-06T11:51:49;27.20;82.10
10270;DHT22;70826;50.930;5.334;2023-08-06T11:54:15;27.20;82.20
10270;DHT22;70826;50.930;5.334;2023-08-06T11:56:43;27.20;82.20
10270;DHT22;70826;50.930;5.334;2023-08-06T11:59:10;27.10;82.10
10270;DHT22;70826;50.930;5.334;2023-08-06T12:01:41;27.10;82.10
10270;DHT22;70826;50.930;5.334;2023-08-06T12:04:09;27.10;82.10
10270;DHT22;70826;50.930;5.334;2023-08-06T12:06:43;27.10;82.10
10270;DHT22;70826;50.930;5.334;2023-08-06T12:09:13;27.10;82.20
10270;DHT22;70826;50.930;5.334;2023-08-06T12:11:41;27.10;82.10
10270;DHT22;70826;50.930;5.334;2023-08-06T12:14:09;27.10;82.20
10270;DHT22;70826;50.930;5.334;2023-08-06T12:16:39;27.10;82.20
10270;DHT22;70826;50.930;5.334;2023-08-06T12:19:08;27.10;82.20
10270;DHT22;70826;50.930;5.334;2023-08-06T12:21:33;27.10;82.20
10270;DHT22;70826;50.930;5.334;2023-08-06T12:23:59;27.10;82.20
10270;DHT22;70826;50.930;5.334;2023-08-06T12:26:27;27.10;82.30
10270;DHT22;70826;50.930;5.334;2023-08-06T12:28:55;27.00;82.20
10270;DHT22;70826;50.930;5.334;2023-08-06T12:31:27;27.00;82.20
10270;DHT22;70826;50.930;5.334;2023-08-06T12:33:57;27.00;82.20
10270;DHT22;70826;50.930;5.334;2023-08-06T12:36:23;27.00;82.20
10270;DHT22;70826;50.930;5.334;2023-08-06T12:38:51;27.00;82.20
10270;DHT22;70826;50.930;5.334;2023-08-06T12:41:19;27.00;82.20
10270;DHT22;70826;50.930;5.334;2023-08-06T12:43:47;27.00;82.20
10270;DHT22;70826;50.930;5.334;2023-08-06T12:46:15;27.00;82.20
10270;DHT22;70826;50.930;5.334;2023-08-06T12:48:43;27.00;82.20
10270;DHT22;70826;50.930;5.334;2023-08-06T12:51:08;27.00;82.20
10270;DHT22;70826;50.930;5.334;2023-08-06T12:53:36;27.00;82.20
10270;DHT22;70826;50.930;5.334;2023-08-06T12:56:06;27.00;82.20
10270;DHT22;70826;50.930;5.334;2023-08-06T12:58:32;26.90;82.20
10270;DHT22;70826;50.930;5.334;2023-08-06T13:01:00;27.00;82.20
10270;DHT22;70826;50.930;5.334;2023-08-06T13:03:25;26.90;82.10
10270;DHT22;70826;50.930;5.334;2023-08-06T13:05:53;26.90;82.10
10270;DHT22;70826;50.930;5.334;2023-08-06T13:08:22;26.90;82.10
10270;DHT22;70826;50.930;5.334;2023-08-06T13:10:47;26.90;82.10
10270;DHT22;70826;50.930;5.334;2023-08-06T13:13:13;26.90;82.10
10270;DHT22;70826;50.930;5.334;2023-08-06T13:15:38;26.90;82.10
10270;DHT22;70826;50.930;5.334;2023-08-06T13:18:04;26.90;82.10
10270;DHT22;70826;50.930;5.334;2023-08-06T13:20:32;26.90;82.10
10270;DHT22;70826;50.930;5.334;2023-08-06T13:23:03;26.90;82.20
10270;DHT22;70826;50.930;5.334;2023-08-06T13:25:31;26.90;82.20
10270;DHT22;70826;50.930;5.334;2023-08-06T13:28:04;26.90;82.20
10270;DHT22;70826;50.930;5.334;2023-08-06T13:30:32;26.90;82.20
10270;DHT22;70826;50.930;5.334;2023-08-06T13:33:01;26.90;82.20
10270;DHT22;70826;50.930;5.334;2023-08-06T13:35:27;26.90;82.20
10270;DHT22;70826;50.930;5.334;2023-08-06T13:37:55;26.90;82.20
10270;DHT22;70826;50.930;5.334;2023-08-06T13:40:28;26.80;82.10
10270;DHT22;70826;50.930;5.334;2023-08-06T13:42:56;26.90;82.20
10270;DHT22;70826;50.930;5.334;2023-08-06T13:45:22;26.90;82.20
10270;DHT22;70826;50.930;5.334;2023-08-06T13:47:48;26.90;82.20
10270;DHT22;70826;50.930;5.334;2023-08-06T13:50:13;26.90;82.20
10270;DHT22;70826;50.930;5.334;2023-08-06T13:52:39;26.90;82.20
10270;DHT22;70826;50.930;5.334;2023-08-06T13:55:06;26.90;82.10
10270;DHT22;70826;50.930;5.334;2023-08-06T13:57:32;26.80;82.10
10270;DHT22;70826;50.930;5.334;2023-08-06T14:00:00;26.80;82.10
10270;DHT22;70826;50.930;5.334;2023-08-06T14:02:31;26.80;82.10
10270;DHT22;70826;50.930;5.334;2023-08-06T14:04:58;26.80;82.10
10270;DHT22;70826;50.930;5.334;2023-08-06T14:07:29;26.80;82.10
10270;DHT22;70826;50.930;5.334;2023-08-06T14:09:57;26.80;82.10
10270;DHT22;70826;50.930;5.334;2023-08-06T14:12:23;26.80;82.10
10270;DHT22;70826;50.930;5.334;2023-08-06T14:14:52;26.80;82.10
10270;DHT22;70826;50.930;5.334;2023-08-06T14:17:20;26.80;82.10
10270;DHT22;70826;50.930;5.334;2023-08-06T14:19:50;26.80;82.10
10270;DHT22;70826;50.930;5.334;2023-08-06T14:22:18;26.80;82.10
10270;DHT22;70826;50.930;5.334;2023-08-06T14:24:43;26.80;82.10
10270;DHT22;70826;50.930;5.334;2023-08-06T14:27:12;26.80;82.10
10270;DHT22;70826;50.930;5.334;2023-08-06T14:29:40;26.80;82.10
10270;DHT22;70826;50.930;5.334;2023-08-06T14:32:06;26.80;82.10
10270;DHT22;70826;50.930;5.334;2023-08-06T14:34:34;26.80;82.10
10270;DHT22;70826;50.930;5.334;2023-08-06T14:37:02;26.80;82.00
10270;DHT22;70826;50.930;5.334;2023-08-06T14:39:33;26.80;82.00
10270;DHT22;70826;50.930;5.334;2023-08-06T14:41:58;26.80;82.00
10270;DHT22;70826;50.930;5.334;2023-08-06T14:44:28;26.80;82.00
10270;DHT22;70826;50.930;5.334;2023-08-06T14:46:56;26.80;82.00
10270;DHT22;70826;50.930;5.334;2023-08-06T14:49:25;26.80;82.00
10270;DHT22;70826;50.930;5.334;2023-08-06T14:51:50;26.80;82.00
10270;DHT22;70826;50.930;5.334;2023-08-06T14:54:16;26.80;82.00
10270;DHT22;70826;50.930;5.334;2023-08-06T14:56:44;26.80;82.00
10270;DHT22;70826;50.930;5.334;2023-08-06T14:59:15;26.80;82.00
10270;DHT22;70826;50.930;5.334;2023-08-06T15:01:43;26.80;81.90
10270;DHT22;70826;50.930;5.334;2023-08-06T15:04:10;26.80;81.90
10270;DHT22;70826;50.930;5.334;2023-08-06T15:06:36;26.80;81.90
10270;DHT22;70826;50.930;5.334;2023-08-06T15:09:02;26.80;81.90
10270;DHT22;70826;50.930;5.334;2023-08-06T15:11:32;26.80;81.90
10270;DHT22;70826;50.930;5.334;2023-08-06T15:14:02;26.80;81.90
10270;DHT22;70826;50.930;5.334;2023-08-06T15:16:32;26.80;81.80
10270;DHT22;70826;50.930;5.334;2023-08-06T15:19:01;26.70;81.70
10270;DHT22;70826;50.930;5.334;2023-08-06T15:21:27;26.70;81.70
10270;DHT22;70826;50.930;5.334;2023-08-06T15:23:55;26.70;81.80
10270;DHT22;70826;50.930;5.334;2023-08-06T15:26:23;26.70;81.70
10270;DHT22;70826;50.930;5.334;2023-08-06T15:28:51;26.70;81.70
10270;DHT22;70826;50.930;5.334;2023-08-06T15:31:20;26.70;81.70
10270;DHT22;70826;50.930;5.334;2023-08-06T15:33:49;26.80;81.70
10270;DHT22;70826;50.930;5.334;2023-08-06T15:36:17;26.70;81.70
10270;DHT22;70826;50.930;5.334;2023-08-06T15:38:47;26.70;81.70
10270;DHT22;70826;50.930;5.334;2023-08-06T15:41:18;26.70;81.70
10270;DHT22;70826;50.930;5.334;2023-08-06T15:43:45;26.70;81.60
10270;DHT22;70826;50.930;5.334;2023-08-06T15:46:11;26.70;81.60
10270;DHT22;70826;50.930;5.334;2023-08-06T15:48:37;26.70;81.60
10270;DHT22;70826;50.930;5.334;2023-08-06T15:51:05;26.70;81.60